createdAt,value
2023-03-11T00:00:53.216Z,0.8
2023-03-11T00:01:56.915Z,0.8
2023-03-11T00:02:59.367Z,0.8
2023-03-11T00:04:02.192Z,0.8
2023-03-11T00:05:05.711Z,0.8
2023-03-11T00:06:09.104Z,0.9
2023-03-11T00:07:12.716Z,0.9
2023-03-11T00:08:16.477Z,0.9
2023-03-11T00:09:19.546Z,0.9
2023-03-11T00:10:21.951Z,0.9
2023-03-11T00:11:25.460Z,0.8
2023-03-11T00:12:28.847Z,0.8
2023-03-11T00:13:31.612Z,0.8
2023-03-11T00:14:34.329Z,0.8
2023-03-11T00:15:36.665Z,0.8
2023-03-11T00:16:40.351Z,0.8
2023-03-11T00:17:42.698Z,0.8
2023-03-11T00:18:45.141Z,0.7
2023-03-11T00:19:47.891Z,0.8
2023-03-11T00:20:52.063Z,0.8
2023-03-11T00:21:54.981Z,0.8
2023-03-11T00:22:58.840Z,0.8
2023-03-11T00:24:02.040Z,0.8
2023-03-11T00:25:05.367Z,0.7
2023-03-11T00:26:09.208Z,0.8
2023-03-11T00:27:12.395Z,0.8
2023-03-11T00:28:15.456Z,0.8
2023-03-11T00:29:18.292Z,0.8
2023-03-11T00:30:21.035Z,0.8
2023-03-11T00:31:24.166Z,0.8
2023-03-11T00:32:27.098Z,0.7
2023-03-11T00:33:30.248Z,0.7
2023-03-11T00:34:33.990Z,0.7
2023-03-11T00:35:37.541Z,0.7
2023-03-11T00:36:41.382Z,0.7
2023-03-11T00:37:44.460Z,0.6
2023-03-11T00:38:48.600Z,0.7
2023-03-11T00:39:52.139Z,0.7
2023-03-11T00:40:55.886Z,0.6
2023-03-11T00:41:58.596Z,0.6
2023-03-11T00:43:01.608Z,0.5
2023-03-11T00:44:05.328Z,0.6
2023-03-11T00:45:08.488Z,0.6
2023-03-11T00:46:11.815Z,0.6
2023-03-11T00:47:15.030Z,0.6
2023-03-11T00:48:18.000Z,0.6
2023-03-11T00:49:21.291Z,0.6
2023-03-11T00:50:24.677Z,0.6
2023-03-11T00:51:27.856Z,0.6
2023-03-11T00:52:31.602Z,0.6
2023-03-11T00:53:35.186Z,0.6
2023-03-11T00:54:38.831Z,0.6
2023-03-11T00:55:42.264Z,0.6
2023-03-11T00:56:45.710Z,0.7
2023-03-11T00:57:48.704Z,0.7
2023-03-11T00:58:51.838Z,0.6
2023-03-11T00:59:55.320Z,0.6
2023-03-11T01:00:58.523Z,0.6
2023-03-11T01:02:01.844Z,0.6
2023-03-11T01:03:04.976Z,0.6
2023-03-11T01:04:08.409Z,0.6
2023-03-11T01:05:12.137Z,0.6
2023-03-11T01:06:15.716Z,0.6
2023-03-11T01:07:20.948Z,0.6
2023-03-11T01:08:28.202Z,0.6
2023-03-11T01:09:34.065Z,0.6
2023-03-11T01:10:40.499Z,0.6
2023-03-11T01:11:45.878Z,0.6
2023-03-11T01:12:51.057Z,0.6
2023-03-11T01:13:56.147Z,0.6
2023-03-11T01:14:59.513Z,0.6
2023-03-11T01:16:05.361Z,0.6
2023-03-11T01:17:09.947Z,0.6
2023-03-11T01:18:13.086Z,0.5
2023-03-11T01:19:16.105Z,0.5
2023-03-11T01:20:19.202Z,0.6
2023-03-11T01:21:22.178Z,0.7
2023-03-11T01:22:25.198Z,0.7
2023-03-11T01:23:28.398Z,0.7
2023-03-11T01:24:31.592Z,0.7
2023-03-11T01:25:35.151Z,0.7
2023-03-11T01:26:38.627Z,0.7
2023-03-11T01:27:41.624Z,0.7
2023-03-11T01:28:44.799Z,0.7
2023-03-11T01:29:47.688Z,0.8
2023-03-11T01:30:51.299Z,0.7
2023-03-11T01:31:54.129Z,0.7
2023-03-11T01:32:57.119Z,0.7
2023-03-11T01:34:00.826Z,0.7
2023-03-11T01:35:03.916Z,0.7
2023-03-11T01:36:06.457Z,0.6
2023-03-11T01:37:10.198Z,0.6
2023-03-11T01:38:13.647Z,0.6
2023-03-11T01:39:16.367Z,0.6
2023-03-11T01:40:19.538Z,0.6
2023-03-11T01:41:22.683Z,0.7
2023-03-11T01:42:26.142Z,0.7
2023-03-11T01:43:29.249Z,0.6
2023-03-11T01:44:32.642Z,0.6
2023-03-11T01:45:36.364Z,0.6
2023-03-11T01:46:39.828Z,0.6
2023-03-11T01:47:42.776Z,0.6
2023-03-11T01:48:45.122Z,0.7
2023-03-11T01:49:48.573Z,0.6
2023-03-11T01:50:50.824Z,0.6
2023-03-11T01:51:53.903Z,0.6
2023-03-11T01:52:56.900Z,0.6
2023-03-11T01:53:59.620Z,0.6
2023-03-11T01:55:03.286Z,0.6
2023-03-11T01:56:05.819Z,0.6
2023-03-11T01:57:09.190Z,0.7
2023-03-11T01:58:13.001Z,0.7
2023-03-11T01:59:15.792Z,0.7
2023-03-11T02:00:18.649Z,0.7
2023-03-11T02:01:21.808Z,0.7
2023-03-11T02:02:24.410Z,0.8
2023-03-11T02:03:26.596Z,0.8
2023-03-11T02:04:29.712Z,0.8
2023-03-11T02:05:32.038Z,0.8
2023-03-11T02:06:35.464Z,0.7
2023-03-11T02:07:38.522Z,0.7
2023-03-11T02:08:41.659Z,0.7
2023-03-11T02:09:44.645Z,0.7
2023-03-11T02:10:47.375Z,0.7
2023-03-11T02:11:50.439Z,0.8
2023-03-11T02:12:53.502Z,0.7
2023-03-11T02:13:57.303Z,0.6
2023-03-11T02:15:00.287Z,0.6
2023-03-11T02:16:04.351Z,0.6
2023-03-11T02:17:07.369Z,0.6
2023-03-11T02:18:10.086Z,0.6
2023-03-11T02:19:13.451Z,0.6
2023-03-11T02:20:16.453Z,0.6
2023-03-11T02:21:19.918Z,0.7
2023-03-11T02:22:22.976Z,0.7
2023-03-11T02:23:26.756Z,0.7
2023-03-11T02:24:29.741Z,0.6
2023-03-11T02:25:33.857Z,0.6
2023-03-11T02:26:37.315Z,0.7
2023-03-11T02:27:40.847Z,0.6
2023-03-11T02:28:43.719Z,0.7
2023-03-11T02:29:47.488Z,0.6
2023-03-11T02:30:50.760Z,0.6
2023-03-11T02:31:54.669Z,0.6
2023-03-11T02:32:57.924Z,0.7
2023-03-11T02:34:00.438Z,0.7
2023-03-11T02:35:04.455Z,0.6
2023-03-11T02:36:08.169Z,0.7
2023-03-11T02:37:10.538Z,0.6
2023-03-11T02:38:13.655Z,0.6
2023-03-11T02:39:16.187Z,0.6
2023-03-11T02:40:19.273Z,0.6
2023-03-11T02:41:21.794Z,0.6
2023-03-11T02:42:24.345Z,0.6
2023-03-11T02:43:26.997Z,0.7
2023-03-11T02:44:30.431Z,0.7
2023-03-11T02:45:33.887Z,0.7
2023-03-11T02:46:36.950Z,0.8
2023-03-11T02:47:39.552Z,0.8
2023-03-11T02:48:41.822Z,0.8
2023-03-11T02:49:45.007Z,0.8
2023-03-11T02:50:48.376Z,0.9
2023-03-11T02:51:51.251Z,0.8
2023-03-11T02:52:53.769Z,0.8
2023-03-11T02:53:57.151Z,0.8
2023-03-11T02:54:59.515Z,0.8
2023-03-11T02:56:02.050Z,0.8
2023-03-11T02:57:04.717Z,0.7
2023-03-11T02:58:07.783Z,0.7
2023-03-11T02:59:11.060Z,0.7
2023-03-11T03:00:14.817Z,0.8
2023-03-11T03:01:19.334Z,0.8
2023-03-11T03:02:21.803Z,0.8
2023-03-11T03:03:24.884Z,0.8
2023-03-11T03:04:28.254Z,0.7
2023-03-11T03:05:31.836Z,0.7
2023-03-11T03:06:35.286Z,0.7
2023-03-11T03:07:38.286Z,0.7
2023-03-11T03:08:41.376Z,0.6
2023-03-11T03:09:44.366Z,0.6
2023-03-11T03:10:47.231Z,0.7
2023-03-11T03:11:50.776Z,0.7
2023-03-11T03:12:53.954Z,0.7
2023-03-11T03:13:56.991Z,0.7
2023-03-11T03:15:00.389Z,0.7
2023-03-11T03:16:04.489Z,0.7
2023-03-11T03:17:09.434Z,0.7
2023-03-11T03:18:13.163Z,0.7
2023-03-11T03:19:16.135Z,0.7
2023-03-11T03:20:19.471Z,0.7
2023-03-11T03:21:21.708Z,0.8
2023-03-11T03:22:24.787Z,0.8
2023-03-11T03:23:27.942Z,0.8
2023-03-11T03:24:30.101Z,0.8
2023-03-11T03:25:32.844Z,0.8
2023-03-11T03:26:35.558Z,0.8
2023-03-11T03:27:39.384Z,0.9
2023-03-11T03:28:42.265Z,0.9
2023-03-11T03:29:45.054Z,0.9
2023-03-11T03:30:48.213Z,0.9
2023-03-11T03:31:51.949Z,0.9
2023-03-11T03:32:55.687Z,0.9
2023-03-11T03:33:58.502Z,0.9
2023-03-11T03:35:01.689Z,0.9
2023-03-11T03:36:05.177Z,0.9
2023-03-11T03:37:08.041Z,0.9
2023-03-11T03:38:11.037Z,0.9
2023-03-11T03:39:14.538Z,0.9
2023-03-11T03:40:18.185Z,0.9
2023-03-11T03:41:21.605Z,0.9
2023-03-11T03:42:24.415Z,0.9
2023-03-11T03:43:26.849Z,1
2023-03-11T03:44:29.845Z,1
2023-03-11T03:45:32.472Z,0.9
2023-03-11T03:46:35.404Z,0.9
2023-03-11T03:47:39.072Z,0.8
2023-03-11T03:48:42.577Z,0.7
2023-03-11T03:49:45.954Z,0.7
2023-03-11T03:50:49.688Z,0.7
2023-03-11T03:51:53.395Z,0.7
2023-03-11T03:52:56.110Z,0.7
2023-03-11T03:53:59.279Z,0.7
2023-03-11T03:55:01.995Z,0.7
2023-03-11T03:56:04.695Z,0.7
2023-03-11T03:57:07.700Z,0.7
2023-03-11T03:58:10.847Z,0.7
2023-03-11T03:59:14.243Z,0.7
2023-03-11T04:00:17.541Z,0.7
2023-03-11T04:01:20.527Z,0.7
2023-03-11T04:02:23.953Z,0.7
2023-03-11T04:03:27.463Z,0.7
2023-03-11T04:04:31.748Z,0.6
2023-03-11T04:05:35.237Z,0.6
2023-03-11T04:06:38.018Z,0.6
2023-03-11T04:07:41.980Z,0.6
2023-03-11T04:08:45.518Z,0.6
2023-03-11T04:09:48.911Z,0.6
2023-03-11T04:10:52.634Z,0.7
2023-03-11T04:11:55.090Z,0.7
2023-03-11T04:12:57.849Z,0.6
2023-03-11T04:14:00.964Z,0.5
2023-03-11T04:15:04.404Z,0.4
2023-03-11T04:16:07.230Z,0.4
2023-03-11T04:17:11.102Z,0.4
2023-03-11T04:18:14.273Z,0.4
2023-03-11T04:19:18.024Z,0.4
2023-03-11T04:20:21.764Z,0.4
2023-03-11T04:21:25.143Z,0.4
2023-03-11T04:22:27.982Z,0.4
2023-03-11T04:23:31.396Z,0.4
2023-03-11T04:24:34.124Z,0.4
2023-03-11T04:25:36.910Z,0.4
2023-03-11T04:26:40.645Z,0.4
2023-03-11T04:27:44.111Z,0.4
2023-03-11T04:28:47.546Z,0.4
2023-03-11T04:29:50.541Z,0.4
2023-03-11T04:30:53.381Z,0.4
2023-03-11T04:31:56.891Z,0.5
2023-03-11T04:33:00.050Z,0.5
2023-03-11T04:34:03.544Z,0.5
2023-03-11T04:35:07.553Z,0.5
2023-03-11T04:36:11.143Z,0.5
2023-03-11T04:37:13.858Z,0.5
2023-03-11T04:38:16.696Z,0.5
2023-03-11T04:39:20.096Z,0.5
2023-03-11T04:40:22.890Z,0.6
2023-03-11T04:41:25.863Z,0.6
2023-03-11T04:42:29.022Z,0.6
2023-03-11T04:43:32.134Z,0.6
2023-03-11T04:44:34.924Z,0.7
2023-03-11T04:45:37.738Z,0.8
2023-03-11T04:46:40.637Z,0.8
2023-03-11T04:47:43.765Z,0.9
2023-03-11T04:48:47.433Z,0.8
2023-03-11T04:49:51.139Z,0.7
2023-03-11T04:50:54.289Z,0.7
2023-03-11T04:51:58.084Z,0.7
2023-03-11T04:53:00.839Z,0.7
2023-03-11T04:54:03.958Z,0.6
2023-03-11T04:55:06.760Z,0.6
2023-03-11T04:56:08.992Z,0.6
2023-03-11T04:57:12.458Z,0.7
2023-03-11T04:58:15.521Z,0.7
2023-03-11T04:59:18.622Z,0.8
2023-03-11T05:00:22.438Z,0.8
2023-03-11T05:01:26.094Z,0.8
2023-03-11T05:02:29.933Z,0.8
2023-03-11T05:03:33.052Z,0.9
2023-03-11T05:04:36.902Z,0.9
2023-03-11T05:05:40.056Z,0.9
2023-03-11T05:06:44.059Z,0.9
2023-03-11T05:07:47.350Z,0.9
2023-03-11T05:08:50.683Z,1
2023-03-11T05:09:53.955Z,1
2023-03-11T05:10:56.486Z,1
2023-03-11T05:11:59.858Z,1
2023-03-11T05:13:02.645Z,1
2023-03-11T05:14:05.939Z,0.9
2023-03-11T05:15:09.324Z,0.9
2023-03-11T05:16:12.253Z,0.9
2023-03-11T05:17:16.042Z,0.9
2023-03-11T05:18:19.457Z,0.9
2023-03-11T05:19:23.114Z,0.8
2023-03-11T05:20:26.208Z,0.8
2023-03-11T05:21:29.028Z,0.7
2023-03-11T05:22:32.408Z,0.6
2023-03-11T05:23:35.901Z,0.7
2023-03-11T05:24:39.040Z,0.7
2023-03-11T05:25:41.578Z,0.7
2023-03-11T05:26:48.510Z,0.6
2023-03-11T05:27:51.525Z,0.5
2023-03-11T05:28:53.960Z,0.5
2023-03-11T05:29:56.424Z,0.5
2023-03-11T05:31:00.023Z,0.5
2023-03-11T05:32:03.473Z,0.5
2023-03-11T05:33:06.229Z,0.5
2023-03-11T05:34:09.639Z,0.6
2023-03-11T05:35:12.750Z,0.6
2023-03-11T05:36:16.019Z,0.5
2023-03-11T05:37:19.189Z,0.6
2023-03-11T05:38:22.708Z,0.6
2023-03-11T05:39:26.146Z,0.6
2023-03-11T05:40:29.056Z,0.6
2023-03-11T05:41:32.307Z,0.6
2023-03-11T05:42:35.081Z,0.6
2023-03-11T05:43:38.450Z,0.5
2023-03-11T05:44:41.795Z,0.5
2023-03-11T05:45:45.247Z,0.5
2023-03-11T05:46:49.236Z,0.5
2023-03-11T05:47:53.031Z,0.5
2023-03-11T05:48:56.311Z,0.5
2023-03-11T05:49:59.316Z,0.5
2023-03-11T05:51:01.923Z,0.4
2023-03-11T05:52:04.621Z,0.4
2023-03-11T05:53:07.759Z,0.4
2023-03-11T05:54:11.760Z,0.4
2023-03-11T05:55:15.300Z,0.4
2023-03-11T05:56:18.388Z,0.4
2023-03-11T05:57:21.267Z,0.5
2023-03-11T05:58:24.850Z,0.5
2023-03-11T05:59:27.733Z,0.5
2023-03-11T06:00:30.617Z,0.4
2023-03-11T06:01:33.785Z,0.4
2023-03-11T06:02:36.927Z,0.3
2023-03-11T06:03:40.442Z,0.3
2023-03-11T06:04:43.700Z,0.4
2023-03-11T06:05:47.055Z,0.3
2023-03-11T06:06:50.138Z,0.4
2023-03-11T06:07:52.951Z,0.3
2023-03-11T06:08:57.084Z,0.3
2023-03-11T06:10:00.790Z,0.3
2023-03-11T06:11:04.540Z,0.3
2023-03-11T06:12:07.936Z,0.3
2023-03-11T06:13:10.740Z,0.3
2023-03-11T06:14:14.235Z,0.3
2023-03-11T06:15:17.834Z,0.3
2023-03-11T06:16:21.154Z,0.2
2023-03-11T06:17:24.544Z,0.3
2023-03-11T06:18:27.647Z,0.3
2023-03-11T06:19:29.994Z,0.3
2023-03-11T06:20:33.442Z,0.3
2023-03-11T06:21:37.105Z,0.3
2023-03-11T06:22:41.923Z,0.3
2023-03-11T06:23:45.364Z,0.4
2023-03-11T06:24:48.607Z,0.3
2023-03-11T06:25:52.028Z,0.3
2023-03-11T06:26:55.477Z,0.3
2023-03-11T06:27:58.416Z,0.3
2023-03-11T06:29:02.188Z,0.2
2023-03-11T06:30:05.297Z,0.2
2023-03-11T06:31:08.702Z,0.3
2023-03-11T06:32:12.275Z,0.3
2023-03-11T06:33:15.772Z,0.3
2023-03-11T06:34:18.782Z,0.3
2023-03-11T06:35:22.527Z,0.3
2023-03-11T06:36:25.681Z,0.4
2023-03-11T06:37:28.543Z,0.3
2023-03-11T06:38:31.617Z,0.3
2023-03-11T06:39:35.035Z,0.3
2023-03-11T06:40:38.433Z,0.3
2023-03-11T06:41:41.223Z,0.3
2023-03-11T06:42:45.346Z,0.3
2023-03-11T06:43:48.062Z,0.3
2023-03-11T06:44:51.204Z,0.3
2023-03-11T06:45:54.199Z,0.3
2023-03-11T06:46:57.158Z,0.3
2023-03-11T06:47:59.943Z,0.2
2023-03-11T06:49:02.972Z,0.2
2023-03-11T06:50:05.689Z,0.3
2023-03-11T06:51:08.936Z,0.3
2023-03-11T06:52:11.936Z,0.3
2023-03-11T06:53:15.106Z,0.4
2023-03-11T06:54:17.566Z,0.4
2023-03-11T06:55:20.641Z,0.4
2023-03-11T06:56:24.172Z,0.5
2023-03-11T06:57:27.884Z,0.5
2023-03-11T06:58:31.347Z,0.6
2023-03-11T06:59:34.962Z,0.6
2023-03-11T07:00:37.818Z,0.5
2023-03-11T07:01:41.017Z,0.6
2023-03-11T07:02:43.788Z,0.6
2023-03-11T07:03:47.438Z,0.6
2023-03-11T07:04:50.527Z,0.6
2023-03-11T07:05:53.674Z,0.6
2023-03-11T07:06:57.136Z,0.6
2023-03-11T07:08:00.134Z,0.6
2023-03-11T07:09:03.267Z,0.5
2023-03-11T07:10:06.627Z,0.4
2023-03-11T07:11:10.340Z,0.5
2023-03-11T07:12:13.494Z,0.4
2023-03-11T07:13:17.959Z,0.4
2023-03-11T07:14:23.105Z,0.4
2023-03-11T07:15:27.228Z,0.4
2023-03-11T07:16:30.789Z,0.4
2023-03-11T07:17:34.393Z,0.4
2023-03-11T07:18:37.594Z,0.4
2023-03-11T07:19:40.606Z,0.4
2023-03-11T07:20:43.666Z,0.4
2023-03-11T07:21:46.752Z,0.4
2023-03-11T07:22:49.841Z,0.4
2023-03-11T07:23:52.569Z,0.3
2023-03-11T07:24:55.567Z,0.3
2023-03-11T07:25:58.670Z,0.3
2023-03-11T07:27:02.054Z,0.3
2023-03-11T07:28:05.578Z,0.3
2023-03-11T07:29:08.940Z,0.3
2023-03-11T07:30:12.706Z,0.2
2023-03-11T07:31:16.907Z,0.3
2023-03-11T07:32:20.317Z,0.2
2023-03-11T07:33:22.833Z,0.2
2023-03-11T07:34:25.822Z,0.2
2023-03-11T07:35:29.260Z,0.2
2023-03-11T07:36:32.056Z,0.3
2023-03-11T07:37:35.199Z,0.2
2023-03-11T07:38:37.811Z,0.2
2023-03-11T07:39:41.162Z,0.2
2023-03-11T07:40:44.891Z,0.3
2023-03-11T07:41:48.356Z,0.3
2023-03-11T07:42:51.499Z,0.4
2023-03-11T07:43:54.717Z,0.3
2023-03-11T07:44:57.831Z,0.3
2023-03-11T07:46:01.631Z,0.4
2023-03-11T07:47:05.244Z,0.4
2023-03-11T07:48:08.356Z,0.5
2023-03-11T07:49:11.388Z,0.5
2023-03-11T07:50:14.728Z,0.6
2023-03-11T07:51:17.483Z,0.6
2023-03-11T07:52:21.196Z,0.6
2023-03-11T07:53:23.706Z,0.6
2023-03-11T07:54:26.814Z,0.6
2023-03-11T07:55:29.141Z,0.7
2023-03-11T07:56:32.847Z,0.6
2023-03-11T07:57:35.558Z,0.6
2023-03-11T07:58:38.370Z,0.6
2023-03-11T07:59:41.835Z,0.8
2023-03-11T08:00:45.205Z,0.9
2023-03-11T08:01:48.656Z,0.9
2023-03-11T08:02:50.570Z,0.9
2023-03-11T08:03:54.563Z,0.8
2023-03-11T08:04:57.702Z,0.8
2023-03-11T08:06:00.524Z,0.8
2023-03-11T08:07:03.318Z,0.8
2023-03-11T08:08:06.219Z,1
2023-03-11T08:09:10.001Z,1.1
2023-03-11T08:10:12.447Z,1.1
2023-03-11T08:11:15.332Z,1.1
2023-03-11T08:12:18.741Z,1.1
2023-03-11T08:13:21.876Z,1
2023-03-11T08:14:24.630Z,1
2023-03-11T08:15:27.941Z,1.1
2023-03-11T08:16:31.066Z,1.1
2023-03-11T08:17:34.942Z,1.1
2023-03-11T08:18:39.025Z,1.2
2023-03-11T08:19:41.740Z,1.1
2023-03-11T08:20:43.960Z,1.1
2023-03-11T08:21:47.327Z,1.1
2023-03-11T08:22:59.878Z,1.1
2023-03-11T08:24:07.034Z,1.1
2023-03-11T08:25:10.348Z,1.1
2023-03-11T08:26:13.141Z,1.1
2023-03-11T08:27:16.511Z,1.1
2023-03-11T08:28:19.654Z,1.3
2023-03-11T08:29:23.095Z,1.3
2023-03-11T08:30:26.409Z,1.3
2023-03-11T08:31:30.146Z,1.2
2023-03-11T08:32:34.175Z,1.2
2023-03-11T08:33:38.574Z,1.1
2023-03-11T08:34:42.844Z,1
2023-03-11T08:35:47.270Z,1
2023-03-11T08:36:51.149Z,1
2023-03-11T08:37:54.786Z,1
2023-03-11T08:38:58.505Z,1
2023-03-11T08:40:01.566Z,1.1
2023-03-11T08:41:05.048Z,1.1
2023-03-11T08:42:08.515Z,1.1
2023-03-11T08:43:10.796Z,1.3
2023-03-11T08:44:14.232Z,1.4
2023-03-11T08:45:17.952Z,1.4
2023-03-11T08:46:21.485Z,1.5
2023-03-11T08:47:25.075Z,1.6
2023-03-11T08:48:29.204Z,1.6
2023-03-11T08:49:33.017Z,1.7
2023-03-11T08:50:55.843Z,1.7
2023-03-11T08:51:59.426Z,1.7
2023-03-11T08:53:02.260Z,1.7
2023-03-11T08:54:05.340Z,1.7
2023-03-11T08:55:09.141Z,1.8
2023-03-11T08:56:11.571Z,1.8
2023-03-11T08:57:15.006Z,1.8
2023-03-11T08:58:18.183Z,1.8
2023-03-11T08:59:21.615Z,1.8
2023-03-11T09:00:24.178Z,1.8
2023-03-11T09:01:27.236Z,1.7
2023-03-11T09:02:30.903Z,1.8
2023-03-11T09:03:34.360Z,1.8
2023-03-11T09:04:38.493Z,2
2023-03-11T09:05:41.753Z,2
2023-03-11T09:06:44.294Z,2.3
2023-03-11T09:07:46.734Z,2.3
2023-03-11T09:08:49.810Z,2.4
2023-03-11T09:09:53.203Z,2.4
2023-03-11T09:10:56.919Z,2.4
2023-03-11T09:12:00.356Z,2.3
2023-03-11T09:13:03.699Z,2.3
2023-03-11T09:14:07.039Z,2.4
2023-03-11T09:15:10.417Z,2.5
2023-03-11T09:16:14.081Z,2.5
2023-03-11T09:17:17.793Z,2.6
2023-03-11T09:18:21.334Z,2.6
2023-03-11T09:19:24.724Z,2.7
2023-03-11T09:20:28.700Z,2.7
2023-03-11T09:21:32.069Z,2.5
2023-03-11T09:22:35.070Z,2.5
2023-03-11T09:23:38.416Z,2.4
2023-03-11T09:24:41.756Z,2.5
2023-03-11T09:25:44.556Z,2.5
2023-03-11T09:26:47.710Z,2.4
2023-03-11T09:27:50.764Z,2.3
2023-03-11T09:28:53.188Z,2.3
2023-03-11T09:29:56.583Z,2.3
2023-03-11T09:30:59.315Z,2.2
2023-03-11T09:32:02.327Z,2.3
2023-03-11T09:33:05.660Z,2.3
2023-03-11T09:34:09.417Z,2.3
2023-03-11T09:35:12.847Z,2.3
2023-03-11T09:36:16.980Z,2.3
2023-03-11T09:37:20.256Z,2.4
2023-03-11T09:38:23.404Z,2.4
2023-03-11T09:39:27.135Z,2.4
2023-03-11T09:40:30.277Z,2.5
2023-03-11T09:41:33.325Z,2.5
2023-03-11T09:42:39.446Z,2.4
2023-03-11T09:43:42.799Z,2.4
2023-03-11T09:44:46.658Z,2.3
2023-03-11T09:45:49.458Z,2.3
2023-03-11T09:46:53.211Z,2.2
2023-03-11T09:47:56.458Z,2.3
2023-03-11T09:48:59.455Z,2.8
2023-03-11T09:50:03.013Z,3
2023-03-11T09:51:06.770Z,3.3
2023-03-11T09:52:10.773Z,3.3
2023-03-11T09:53:14.037Z,3.2
2023-03-11T09:54:16.817Z,3.1
2023-03-11T09:55:19.246Z,3
2023-03-11T09:56:22.652Z,2.7
2023-03-11T09:57:25.213Z,2.5
2023-03-11T09:58:28.024Z,2.6
2023-03-11T09:59:31.410Z,2.3
2023-03-11T10:00:34.315Z,2.3
2023-03-11T10:01:37.799Z,2.2
2023-03-11T10:02:41.907Z,2.2
2023-03-11T10:03:45.205Z,2.2
2023-03-11T10:04:48.873Z,2.2
2023-03-11T10:05:52.710Z,2.2
2023-03-11T10:06:56.022Z,2.2
2023-03-11T10:07:59.933Z,2.3
2023-03-11T10:09:02.650Z,2.2
2023-03-11T10:10:05.381Z,2.1
2023-03-11T10:11:07.683Z,2
2023-03-11T10:12:11.132Z,2
2023-03-11T10:13:14.569Z,2.1
2023-03-11T10:14:18.104Z,2
2023-03-11T10:15:21.455Z,2.1
2023-03-11T10:16:25.258Z,2.1
2023-03-11T10:17:27.873Z,2
2023-03-11T10:18:30.323Z,2.2
2023-03-11T10:19:33.409Z,2.5
2023-03-11T10:20:36.466Z,2.7
2023-03-11T10:21:39.547Z,3
2023-03-11T10:22:43.571Z,3.2
2023-03-11T10:23:47.179Z,3.4
2023-03-11T10:24:50.835Z,3.6
2023-03-11T10:25:53.285Z,3.8
2023-03-11T10:26:56.131Z,4.2
2023-03-11T10:27:58.961Z,4.3
2023-03-11T10:29:02.113Z,4.3
2023-03-11T10:30:04.896Z,4.4
2023-03-11T10:31:07.977Z,4.3
2023-03-11T10:32:11.926Z,4.3
2023-03-11T10:33:15.440Z,4.4
2023-03-11T10:34:18.593Z,4.6
2023-03-11T10:35:21.908Z,4.7
2023-03-11T10:36:24.931Z,4.5
2023-03-11T10:37:51.252Z,4.4
2023-03-11T10:38:55.280Z,4.3
2023-03-11T10:39:58.336Z,4.1
2023-03-11T10:41:01.314Z,3.9
2023-03-11T10:42:04.387Z,3.7
2023-03-11T10:43:07.279Z,3.5
2023-03-11T10:44:10.929Z,3.5
2023-03-11T10:45:13.844Z,3.5
2023-03-11T10:46:18.043Z,3.8
2023-03-11T10:47:20.830Z,4.1
2023-03-11T10:48:24.234Z,4.3
2023-03-11T10:49:27.589Z,4.8
2023-03-11T10:50:30.043Z,5.1
2023-03-11T10:51:33.448Z,5.2
2023-03-11T10:52:35.940Z,5.5
2023-03-11T10:53:38.444Z,5.9
2023-03-11T10:54:42.563Z,5.9
2023-03-11T10:55:45.647Z,6.1
2023-03-11T10:56:48.991Z,6.4
2023-03-11T10:57:51.172Z,6.3
2023-03-11T10:58:54.069Z,6.5
2023-03-11T10:59:57.870Z,6.7
2023-03-11T11:01:01.660Z,7.1
2023-03-11T11:02:05.147Z,7.1
2023-03-11T11:03:08.410Z,7.2
2023-03-11T11:04:11.159Z,7.4
2023-03-11T11:05:14.029Z,7.6
2023-03-11T11:06:17.475Z,7.3
2023-03-11T11:07:20.467Z,7.3
2023-03-11T11:08:23.464Z,6.7
2023-03-11T11:09:28.866Z,6.4
2023-03-11T11:10:32.992Z,6.6
2023-03-11T11:11:36.224Z,6.2
2023-03-11T11:12:38.705Z,6.1
2023-03-11T11:13:42.313Z,5.9
2023-03-11T11:14:45.476Z,6.1
2023-03-11T11:15:48.295Z,6.4
2023-03-11T11:16:51.294Z,6.6
2023-03-11T11:17:54.879Z,6.5
2023-03-11T11:18:57.991Z,6.7
2023-03-11T11:20:01.064Z,7
2023-03-11T11:21:04.716Z,7.2
2023-03-11T11:22:08.256Z,7.1
2023-03-11T11:23:11.390Z,7.3
2023-03-11T11:24:14.387Z,7.3
2023-03-11T11:25:18.018Z,7.2
2023-03-11T11:26:22.153Z,7.2
2023-03-11T11:27:25.208Z,7.4
2023-03-11T11:28:28.579Z,7.6
2023-03-11T11:29:31.569Z,7.9
2023-03-11T11:30:35.078Z,8.1
2023-03-11T11:31:39.119Z,8.4
2023-03-11T11:32:42.907Z,8.3
2023-03-11T11:33:45.288Z,8.4
2023-03-11T11:34:48.425Z,8.3
2023-03-11T11:35:52.092Z,8.3
2023-03-11T11:36:55.560Z,8.1
2023-03-11T11:37:58.442Z,8
2023-03-11T11:39:01.806Z,8
2023-03-11T11:40:05.500Z,8.1
2023-03-11T11:41:08.951Z,7.9
2023-03-11T11:42:13.179Z,7.8
2023-03-11T11:43:16.655Z,7.9
2023-03-11T11:44:19.740Z,7.8
2023-03-11T11:45:23.174Z,7.8
2023-03-11T11:46:26.571Z,8.2
2023-03-11T11:47:29.402Z,8.3
2023-03-11T11:48:32.799Z,8.4
2023-03-11T11:49:35.893Z,8.7
2023-03-11T11:50:39.236Z,9.1
2023-03-11T11:51:42.346Z,9.3
2023-03-11T11:52:46.815Z,9.6
2023-03-11T11:53:50.463Z,9.4
2023-03-11T11:54:53.167Z,9.3
2023-03-11T11:55:56.535Z,9.2
2023-03-11T11:57:00.016Z,9.4
2023-03-11T11:58:03.900Z,9.2
2023-03-11T11:59:07.601Z,9.1
2023-03-11T12:00:10.594Z,9
2023-03-11T12:01:14.411Z,8.9
2023-03-11T12:02:17.513Z,9.1
2023-03-11T12:03:20.531Z,8.9
2023-03-11T12:04:23.317Z,9.1
2023-03-11T12:05:27.193Z,9.4
2023-03-11T12:06:30.669Z,9.6
2023-03-11T12:07:33.651Z,9.9
2023-03-11T12:08:36.396Z,10.2
2023-03-11T12:09:40.114Z,10.4
2023-03-11T12:10:43.104Z,10.5
2023-03-11T12:11:45.836Z,10.8
2023-03-11T12:12:48.974Z,10.7
2023-03-11T12:13:53.081Z,10.4
2023-03-11T12:14:55.918Z,10.2
2023-03-11T12:15:59.505Z,10
2023-03-11T12:17:05.715Z,9.8
2023-03-11T12:18:09.157Z,9.8
2023-03-11T12:19:12.894Z,10.1
2023-03-11T12:20:16.088Z,9.7
2023-03-11T12:21:19.091Z,9.6
2023-03-11T12:22:22.280Z,9.5
2023-03-11T12:23:25.662Z,9.4
2023-03-11T12:24:28.357Z,9.5
2023-03-11T12:25:31.785Z,9.5
2023-03-11T12:26:35.424Z,9.6
2023-03-11T12:27:38.487Z,9.6
2023-03-11T12:28:41.897Z,9.4
2023-03-11T12:29:46.108Z,9.4
2023-03-11T12:30:49.284Z,9.5
2023-03-11T12:31:53.087Z,9.6
2023-03-11T12:32:56.744Z,9.7
2023-03-11T12:33:59.463Z,9.5
2023-03-11T12:35:02.827Z,9.4
2023-03-11T12:36:06.045Z,9.5
2023-03-11T12:37:09.449Z,9.5
2023-03-11T12:38:11.871Z,9.6
2023-03-11T12:39:14.935Z,9.9
2023-03-11T12:40:17.933Z,10.1
2023-03-11T12:41:22.795Z,10
2023-03-11T12:42:25.857Z,10.2
2023-03-11T12:43:29.341Z,10.1
2023-03-11T12:44:32.762Z,10
2023-03-11T12:45:36.582Z,9.8
2023-03-11T12:46:39.970Z,9.7
2023-03-11T12:47:43.351Z,9.6
2023-03-11T12:48:46.275Z,9.4
2023-03-11T12:49:49.385Z,9.1
2023-03-11T12:50:53.060Z,8.9
2023-03-11T12:51:56.398Z,8.8
2023-03-11T12:52:59.773Z,8.9
2023-03-11T12:54:02.828Z,9.1
2023-03-11T12:55:06.193Z,9.3
2023-03-11T12:56:09.274Z,9.3
2023-03-11T12:57:11.779Z,9.1
2023-03-11T12:58:15.204Z,9.1
2023-03-11T12:59:18.817Z,9.2
2023-03-11T13:00:22.629Z,9.4
2023-03-11T13:01:27.280Z,9.4
2023-03-11T13:02:30.453Z,9.4
2023-03-11T13:03:33.469Z,9.3
2023-03-11T13:04:36.204Z,9.4
2023-03-11T13:05:39.754Z,9.4
2023-03-11T13:06:43.383Z,9.5
2023-03-11T13:07:46.770Z,9.7
2023-03-11T13:08:49.979Z,9.8
2023-03-11T13:09:52.968Z,9.7
2023-03-11T13:10:55.863Z,9.6
2023-03-11T13:11:58.325Z,9.5
2023-03-11T13:13:01.108Z,9.4
2023-03-11T13:14:04.171Z,9.4
2023-03-11T13:15:07.247Z,9.5
2023-03-11T13:16:10.650Z,9.5
2023-03-11T13:17:14.523Z,9.3
2023-03-11T13:18:17.903Z,9.4
2023-03-11T13:19:21.997Z,9.5
2023-03-11T13:20:27.953Z,9.6
2023-03-11T13:21:31.369Z,9.6
2023-03-11T13:22:34.815Z,9.8
2023-03-11T13:23:38.465Z,9.7
2023-03-11T13:24:41.273Z,9.8
2023-03-11T13:25:44.711Z,9.9
2023-03-11T13:26:47.507Z,10.1
2023-03-11T13:27:51.144Z,10.3
2023-03-11T13:28:54.902Z,10.5
2023-03-11T13:29:58.086Z,10.7
2023-03-11T13:31:01.098Z,10.9
2023-03-11T13:32:04.868Z,10.9
2023-03-11T13:33:08.999Z,10.7
2023-03-11T13:34:12.659Z,10.6
2023-03-11T13:35:15.672Z,10.4
2023-03-11T13:36:18.210Z,10.2
2023-03-11T13:37:22.022Z,10.1
2023-03-11T13:38:24.829Z,10.1
2023-03-11T13:39:27.558Z,10
2023-03-11T13:40:30.937Z,9.7
2023-03-11T13:41:34.168Z,9.7
2023-03-11T13:42:37.605Z,9.7
2023-03-11T13:43:41.051Z,9.8
2023-03-11T13:44:44.396Z,10.1
2023-03-11T13:45:47.427Z,10.1
2023-03-11T13:46:50.718Z,10.1
2023-03-11T13:47:54.061Z,10.3
2023-03-11T13:48:57.875Z,10
2023-03-11T13:50:00.873Z,9.8
2023-03-11T13:51:04.260Z,9.8
2023-03-11T13:52:07.331Z,9.9
2023-03-11T13:53:10.118Z,10.1
2023-03-11T13:54:13.176Z,10.3
2023-03-11T13:55:16.353Z,10.6
2023-03-11T13:56:19.462Z,10.5
2023-03-11T13:57:22.208Z,10.4
2023-03-11T13:58:25.309Z,10
2023-03-11T13:59:28.468Z,9.6
2023-03-11T14:00:31.881Z,9.7
2023-03-11T14:01:35.493Z,9.6
2023-03-11T14:02:38.561Z,9.6
2023-03-11T14:03:41.901Z,9.3
2023-03-11T14:04:45.823Z,8.9
2023-03-11T14:05:48.245Z,8.9
2023-03-11T14:06:51.232Z,9
2023-03-11T14:07:54.421Z,9
2023-03-11T14:08:57.548Z,9
2023-03-11T14:10:00.739Z,8.7
2023-03-11T14:11:04.084Z,8.7
2023-03-11T14:12:07.114Z,8.9
2023-03-11T14:13:10.836Z,9.1
2023-03-11T14:14:14.259Z,9.4
2023-03-11T14:15:17.350Z,9.6
2023-03-11T14:16:21.299Z,9.6
2023-03-11T14:17:24.337Z,9.5
2023-03-11T14:18:27.403Z,9.4
2023-03-11T14:19:31.244Z,9.4
2023-03-11T14:20:35.819Z,9.2
2023-03-11T14:21:38.701Z,8.9
2023-03-11T14:22:41.847Z,8.7
2023-03-11T14:23:45.209Z,9
2023-03-11T14:24:48.636Z,8.7
2023-03-11T14:25:51.360Z,8.5
2023-03-11T14:26:54.440Z,8.2
2023-03-11T14:27:57.521Z,8
2023-03-11T14:29:01.623Z,8.1
2023-03-11T14:30:04.110Z,8.2
2023-03-11T14:31:07.275Z,8.2
2023-03-11T14:32:10.956Z,8.5
2023-03-11T14:33:14.112Z,8.8
2023-03-11T14:34:17.133Z,9.2